createdAt,value
2022-12-28T00:00:43.094Z,1015.92
2022-12-28T00:01:43.039Z,1015.91
2022-12-28T00:02:43.078Z,1015.89
2022-12-28T00:03:43.031Z,1015.93
2022-12-28T00:04:42.988Z,1015.96
2022-12-28T00:05:43.019Z,1015.96
2022-12-28T00:06:43.007Z,1016.00
2022-12-28T00:07:42.975Z,1015.99
2022-12-28T00:08:42.947Z,1016.02
2022-12-28T00:09:42.967Z,1015.97
2022-12-28T00:11:07.554Z,1016.00
2022-12-28T00:11:43.972Z,1016.04
2022-12-28T00:12:42.939Z,1016.08
2022-12-28T00:13:42.875Z,1016.01
2022-12-28T00:14:42.869Z,1016.02
2022-12-28T00:15:42.855Z,1016.00
2022-12-28T00:16:42.917Z,1016.03
2022-12-28T00:17:42.860Z,1015.95
2022-12-28T00:18:42.802Z,1015.99
2022-12-28T00:19:42.822Z,1015.90
2022-12-28T00:20:42.796Z,1015.93
2022-12-28T00:21:42.784Z,1015.93
2022-12-28T00:22:42.787Z,1015.85
2022-12-28T00:23:42.745Z,1015.87
2022-12-28T00:24:42.728Z,1015.88
2022-12-28T00:25:42.716Z,1015.84
2022-12-28T00:26:42.716Z,1015.81
2022-12-28T00:27:42.743Z,1015.70
2022-12-28T00:28:42.679Z,1015.70
2022-12-28T00:29:42.697Z,1015.68
2022-12-28T00:30:42.694Z,1015.70
2022-12-28T00:31:42.669Z,1015.56
2022-12-28T00:32:42.646Z,1015.62
2022-12-28T00:33:42.630Z,1015.65
2022-12-28T00:34:42.628Z,1015.57
2022-12-28T00:35:42.631Z,1015.53
2022-12-28T00:37:11.144Z,1015.39
2022-12-28T00:37:43.638Z,1015.42
2022-12-28T00:38:42.540Z,1015.41
2022-12-28T00:39:42.556Z,1015.38
2022-12-28T00:40:42.544Z,1015.37
2022-12-28T00:41:42.527Z,1015.36
2022-12-28T00:42:42.546Z,1015.48
2022-12-28T00:43:42.511Z,1015.31
2022-12-28T00:44:42.487Z,1015.39
2022-12-28T00:45:42.517Z,1015.37
2022-12-28T00:46:42.441Z,1015.33
2022-12-28T00:47:42.467Z,1015.33
2022-12-28T00:48:42.409Z,1015.29
2022-12-28T00:49:42.413Z,1015.21
2022-12-28T00:50:42.388Z,1015.20
2022-12-28T00:51:42.407Z,1015.15
2022-12-28T00:52:42.389Z,1015.12
2022-12-28T00:53:42.369Z,1015.16
2022-12-28T00:54:42.353Z,1015.02
2022-12-28T00:55:42.320Z,1015.02
2022-12-28T00:56:42.321Z,1014.97
2022-12-28T00:57:42.339Z,1014.93
2022-12-28T00:58:42.284Z,1014.87
2022-12-28T00:59:42.292Z,1014.85
2022-12-28T01:00:42.316Z,1014.79
2022-12-28T01:01:42.329Z,1014.72
2022-12-28T01:02:42.281Z,1014.73
2022-12-28T01:03:42.214Z,1014.75
2022-12-28T01:04:42.214Z,1014.74
2022-12-28T01:05:42.200Z,1014.78
2022-12-28T01:06:42.201Z,1014.74
2022-12-28T01:07:42.199Z,1014.70
2022-12-28T01:08:42.150Z,1014.66
2022-12-28T01:09:42.163Z,1014.71
2022-12-28T01:10:42.145Z,1014.73
2022-12-28T01:11:42.129Z,1014.74
2022-12-28T01:12:42.135Z,1014.84
2022-12-28T01:13:42.091Z,1014.82
2022-12-28T01:14:42.070Z,1014.70
2022-12-28T01:15:42.073Z,1014.70
2022-12-28T01:16:42.086Z,1014.64
2022-12-28T01:17:42.061Z,1014.72
2022-12-28T01:18:42.030Z,1014.63
2022-12-28T01:19:42.001Z,1014.58
2022-12-28T01:20:41.990Z,1014.53
2022-12-28T01:21:42.001Z,1014.49
2022-12-28T01:22:41.987Z,1014.50
2022-12-28T01:23:41.970Z,1014.39
2022-12-28T01:24:41.962Z,1014.35
2022-12-28T01:25:41.944Z,1014.31
2022-12-28T01:26:41.955Z,1014.29
2022-12-28T01:27:41.969Z,1014.33
2022-12-28T01:28:41.906Z,1014.35
2022-12-28T01:29:41.887Z,1014.40
2022-12-28T01:30:41.875Z,1014.45
2022-12-28T01:31:41.930Z,1014.44
2022-12-28T01:32:41.848Z,1014.30
2022-12-28T01:33:41.817Z,1014.33
2022-12-28T01:34:41.820Z,1014.29
2022-12-28T01:35:41.848Z,1014.37
2022-12-28T01:36:41.790Z,1014.34
2022-12-28T01:37:41.784Z,1014.33
2022-12-28T01:38:41.757Z,1014.25
2022-12-28T01:39:41.759Z,1014.30
2022-12-28T01:40:41.725Z,1014.26
2022-12-28T01:41:41.727Z,1014.19
2022-12-28T01:42:41.734Z,1014.24
2022-12-28T01:43:41.727Z,1014.20
2022-12-28T01:44:41.697Z,1014.19
2022-12-28T01:45:41.702Z,1014.14
2022-12-28T01:46:41.685Z,1014.12
2022-12-28T01:47:41.679Z,1014.15
2022-12-28T01:48:41.624Z,1014.16
2022-12-28T01:49:41.603Z,1014.16
2022-12-28T01:50:41.626Z,1014.06
2022-12-28T01:51:41.591Z,1014.07
2022-12-28T01:52:41.575Z,1014.07
2022-12-28T01:53:41.559Z,1014.00
2022-12-28T01:54:41.568Z,1014.04
2022-12-28T01:55:41.546Z,1014.02
2022-12-28T01:56:41.537Z,1014.02
2022-12-28T01:57:41.515Z,1013.98
2022-12-28T01:58:41.510Z,1013.96
2022-12-28T01:59:41.497Z,1013.96
2022-12-28T02:00:41.492Z,1013.94
2022-12-28T02:01:41.548Z,1013.91
2022-12-28T02:02:41.582Z,1014.02
2022-12-28T02:03:41.436Z,1013.96
2022-12-28T02:04:41.452Z,1013.94
2022-12-28T02:05:41.395Z,1013.94
2022-12-28T02:06:41.422Z,1013.99
2022-12-28T02:07:41.405Z,1013.91
2022-12-28T02:08:41.377Z,1013.92
2022-12-28T02:09:41.372Z,1013.91
2022-12-28T02:10:45.733Z,1013.84
2022-12-28T02:11:41.325Z,1013.84
2022-12-28T02:12:41.354Z,1013.86
2022-12-28T02:13:41.287Z,1013.80
2022-12-28T02:14:41.276Z,1013.75
2022-12-28T02:15:41.284Z,1013.75
2022-12-28T02:16:41.281Z,1013.74
2022-12-28T02:17:41.266Z,1013.73
2022-12-28T02:18:41.226Z,1013.80
2022-12-28T02:19:41.241Z,1013.81
2022-12-28T02:20:41.207Z,1013.75
2022-12-28T02:21:41.184Z,1013.74
2022-12-28T02:22:41.218Z,1013.72
2022-12-28T02:23:41.148Z,1013.76
2022-12-28T02:24:41.154Z,1013.76
2022-12-28T02:25:41.124Z,1013.73
2022-12-28T02:26:41.121Z,1013.73
2022-12-28T02:27:41.109Z,1013.72
2022-12-28T02:28:41.103Z,1013.69
2022-12-28T02:29:41.085Z,1013.68
2022-12-28T02:30:41.118Z,1013.63
2022-12-28T02:31:41.074Z,1013.61
2022-12-28T02:32:41.059Z,1013.61
2022-12-28T02:33:41.024Z,1013.52
2022-12-28T02:34:41.057Z,1013.53
2022-12-28T02:35:41.008Z,1013.51
2022-12-28T02:36:40.988Z,1013.45
2022-12-28T02:37:40.998Z,1013.44
2022-12-28T02:38:40.976Z,1013.33
2022-12-28T02:39:40.947Z,1013.33
2022-12-28T02:40:40.940Z,1013.36
2022-12-28T02:41:40.929Z,1013.35
2022-12-28T02:42:40.940Z,1013.33
2022-12-28T02:43:40.907Z,1013.30
2022-12-28T02:44:40.897Z,1013.36
2022-12-28T02:45:40.930Z,1013.36
2022-12-28T02:46:40.901Z,1013.32
2022-12-28T02:47:40.857Z,1013.28
2022-12-28T02:48:40.837Z,1013.20
2022-12-28T02:49:40.814Z,1013.16
2022-12-28T02:50:40.820Z,1013.19
2022-12-28T02:51:40.800Z,1013.15
2022-12-28T02:52:40.779Z,1013.11
2022-12-28T02:53:40.775Z,1013.08
2022-12-28T02:54:40.751Z,1013.05
2022-12-28T02:55:40.739Z,1013.06
2022-12-28T02:56:40.778Z,1013.06
2022-12-28T02:57:40.722Z,1013.00
2022-12-28T02:58:40.748Z,1012.95
2022-12-28T02:59:40.715Z,1012.97
2022-12-28T03:00:40.684Z,1012.92
2022-12-28T03:01:40.774Z,1012.91
2022-12-28T03:02:40.746Z,1012.87
2022-12-28T03:03:40.619Z,1012.86
2022-12-28T03:04:40.621Z,1012.88
2022-12-28T03:05:40.625Z,1012.87
2022-12-28T03:06:40.640Z,1012.88
2022-12-28T03:07:40.585Z,1012.80
2022-12-28T03:08:40.582Z,1012.89
2022-12-28T03:09:40.539Z,1012.82
2022-12-28T03:10:40.545Z,1012.84
2022-12-28T03:11:40.541Z,1012.78
2022-12-28T03:12:40.519Z,1012.75
2022-12-28T03:13:40.502Z,1012.73
2022-12-28T03:14:40.490Z,1012.61
2022-12-28T03:15:40.485Z,1012.66
2022-12-28T03:16:40.508Z,1012.60
2022-12-28T03:17:40.452Z,1012.59
2022-12-28T03:18:40.432Z,1012.55
2022-12-28T03:19:40.420Z,1012.54
2022-12-28T03:20:40.453Z,1012.56
2022-12-28T03:21:40.424Z,1012.52
2022-12-28T03:22:40.388Z,1012.46
2022-12-28T03:23:40.374Z,1012.40
2022-12-28T03:24:40.363Z,1012.44
2022-12-28T03:25:40.353Z,1012.43
2022-12-28T03:26:40.355Z,1012.42
2022-12-28T03:27:40.301Z,1012.43
2022-12-28T03:28:40.301Z,1012.38
2022-12-28T03:29:40.312Z,1012.42
2022-12-28T03:30:40.478Z,1012.38
2022-12-28T03:31:40.280Z,1012.39
2022-12-28T03:32:40.250Z,1012.44
2022-12-28T03:33:40.231Z,1012.40
2022-12-28T03:34:40.264Z,1012.42
2022-12-28T03:35:40.222Z,1012.40
2022-12-28T03:36:40.229Z,1012.38
2022-12-28T03:37:40.243Z,1012.29
2022-12-28T03:38:40.174Z,1012.35
2022-12-28T03:39:40.164Z,1012.33
2022-12-28T03:40:40.174Z,1012.32
2022-12-28T03:41:40.162Z,1012.31
2022-12-28T03:42:40.120Z,1012.32
2022-12-28T03:43:40.120Z,1012.40
2022-12-28T03:44:40.093Z,1012.36
2022-12-28T03:45:46.546Z,1012.33
2022-12-28T03:46:41.102Z,1012.35
2022-12-28T03:47:40.078Z,1012.31
2022-12-28T03:48:40.067Z,1012.25
2022-12-28T03:49:40.053Z,1012.26
2022-12-28T03:50:40.017Z,1012.22
2022-12-28T03:51:39.991Z,1012.22
2022-12-28T03:52:40.025Z,1012.22
2022-12-28T03:53:39.972Z,1012.22
2022-12-28T03:54:39.973Z,1012.16
2022-12-28T03:55:39.950Z,1012.18
2022-12-28T03:56:39.943Z,1012.11
2022-12-28T03:57:39.931Z,1012.15
2022-12-28T03:58:39.929Z,1012.13
2022-12-28T03:59:39.895Z,1012.15
2022-12-28T04:00:39.891Z,1012.17
2022-12-28T04:01:39.966Z,1012.18
2022-12-28T04:02:39.913Z,1012.03
2022-12-28T04:03:39.847Z,1012.07
2022-12-28T04:04:39.852Z,1012.03
2022-12-28T04:05:39.856Z,1012.01
2022-12-28T04:06:39.845Z,1012.00
2022-12-28T04:07:39.794Z,1012.01
2022-12-28T04:08:39.766Z,1012.03
2022-12-28T04:09:39.776Z,1012.03
2022-12-28T04:10:39.748Z,1011.98
2022-12-28T04:11:39.805Z,1011.97
2022-12-28T04:12:39.716Z,1011.93
2022-12-28T04:13:39.713Z,1011.83
2022-12-28T04:14:39.698Z,1011.96
2022-12-28T04:15:39.796Z,1011.87
2022-12-28T04:16:39.729Z,1011.90
2022-12-28T04:17:39.689Z,1011.91
2022-12-28T04:18:39.640Z,1011.87
2022-12-28T04:19:39.664Z,1011.94
2022-12-28T04:20:39.627Z,1011.90
2022-12-28T04:21:39.622Z,1011.78
2022-12-28T04:22:39.610Z,1011.89
2022-12-28T04:23:39.607Z,1011.88
2022-12-28T04:24:39.588Z,1011.87
2022-12-28T04:25:39.567Z,1011.81
2022-12-28T04:26:39.659Z,1011.77
2022-12-28T04:27:39.548Z,1011.75
2022-12-28T04:28:39.526Z,1011.73
2022-12-28T04:29:39.520Z,1011.69
2022-12-28T04:30:39.478Z,1011.69
2022-12-28T04:31:39.516Z,1011.66
2022-12-28T04:32:39.482Z,1011.73
2022-12-28T04:33:39.438Z,1011.74
2022-12-28T04:34:44.743Z,1011.69
2022-12-28T04:35:40.429Z,1011.70
2022-12-28T04:36:39.422Z,1011.67
2022-12-28T04:37:39.410Z,1011.60
2022-12-28T04:38:39.379Z,1011.59
2022-12-28T04:39:55.585Z,1011.49
2022-12-28T04:40:40.369Z,1011.52
2022-12-28T04:41:39.340Z,1011.53
2022-12-28T04:42:39.347Z,1011.53
2022-12-28T04:43:39.330Z,1011.53
2022-12-28T04:44:39.321Z,1011.55
2022-12-28T04:45:39.277Z,1011.54
2022-12-28T04:46:39.315Z,1011.47
2022-12-28T04:47:39.261Z,1011.44
2022-12-28T04:48:39.240Z,1011.40
2022-12-28T04:49:39.223Z,1011.43
2022-12-28T04:50:39.226Z,1011.45
2022-12-28T04:51:39.220Z,1011.38
2022-12-28T04:52:39.207Z,1011.33
2022-12-28T04:53:39.171Z,1011.41
2022-12-28T04:54:39.167Z,1011.34
2022-12-28T04:55:39.144Z,1011.28
2022-12-28T04:56:39.160Z,1011.37
2022-12-28T04:57:39.124Z,1011.35
2022-12-28T04:58:39.127Z,1011.33
2022-12-28T04:59:39.123Z,1011.36
2022-12-28T05:00:39.162Z,1011.35
2022-12-28T05:01:39.221Z,1011.34
2022-12-28T05:02:39.147Z,1011.29
2022-12-28T05:03:39.049Z,1011.32
2022-12-28T05:04:39.057Z,1011.36
2022-12-28T05:05:39.021Z,1011.35
2022-12-28T05:06:39.015Z,1011.32
2022-12-28T05:07:38.993Z,1011.36
2022-12-28T05:08:38.989Z,1011.38
2022-12-28T05:09:38.961Z,1011.41
2022-12-28T05:10:38.983Z,1011.34
2022-12-28T05:11:38.943Z,1011.39
2022-12-28T05:12:38.967Z,1011.31
2022-12-28T05:13:38.904Z,1011.29
2022-12-28T05:14:38.893Z,1011.34
2022-12-28T05:15:38.884Z,1011.25
2022-12-28T05:16:38.937Z,1011.29
2022-12-28T05:17:38.864Z,1011.28
2022-12-28T05:18:38.834Z,1011.22
2022-12-28T05:19:38.835Z,1011.26
2022-12-28T05:20:38.813Z,1011.28
2022-12-28T05:21:38.804Z,1011.25
2022-12-28T05:22:41.093Z,1011.24
2022-12-28T05:23:38.775Z,1011.24
2022-12-28T05:24:38.774Z,1011.25
2022-12-28T05:25:38.754Z,1011.20
2022-12-28T05:26:38.741Z,1011.15
2022-12-28T05:27:38.756Z,1011.14
2022-12-28T05:28:38.717Z,1011.20
2022-12-28T05:29:38.700Z,1011.20
2022-12-28T05:30:38.694Z,1011.17
2022-12-28T05:31:38.800Z,1011.17
2022-12-28T05:32:38.672Z,1011.10
2022-12-28T05:33:38.657Z,1011.17
2022-12-28T05:34:38.633Z,1011.12
2022-12-28T05:35:38.689Z,1011.14
2022-12-28T05:36:38.622Z,1011.13
2022-12-28T05:37:38.594Z,1011.11
2022-12-28T05:38:38.577Z,1011.18
2022-12-28T05:39:38.579Z,1011.20
2022-12-28T05:40:38.548Z,1011.11
2022-12-28T05:41:38.584Z,1011.19
2022-12-28T05:42:38.551Z,1011.17
2022-12-28T05:43:38.583Z,1011.20
2022-12-28T05:44:38.543Z,1011.14
2022-12-28T05:45:38.548Z,1011.16
2022-12-28T05:46:38.572Z,1011.19
2022-12-28T05:47:45.504Z,1011.20
2022-12-28T05:48:38.450Z,1011.17
2022-12-28T05:49:38.438Z,1011.15
2022-12-28T05:50:38.428Z,1011.10
2022-12-28T05:51:39.977Z,1011.17
2022-12-28T05:52:38.847Z,1011.10
2022-12-28T05:53:38.405Z,1011.05
2022-12-28T05:54:38.355Z,1011.05
2022-12-28T05:55:38.375Z,1011.14
2022-12-28T05:56:38.356Z,1011.05
2022-12-28T05:57:38.336Z,1011.00
2022-12-28T05:58:38.307Z,1010.97
2022-12-28T05:59:38.300Z,1011.04
2022-12-28T06:00:38.329Z,1010.96
2022-12-28T06:01:38.400Z,1010.98
2022-12-28T06:02:38.294Z,1011.06
2022-12-28T06:03:38.275Z,1010.99
2022-12-28T06:04:38.236Z,1011.01
2022-12-28T06:05:38.252Z,1010.93
2022-12-28T06:06:38.197Z,1010.87
2022-12-28T06:07:38.195Z,1010.88
2022-12-28T06:08:38.168Z,1010.95
2022-12-28T06:09:38.167Z,1010.84
2022-12-28T06:10:38.198Z,1010.87
2022-12-28T06:11:38.160Z,1010.80
2022-12-28T06:12:38.131Z,1010.80
2022-12-28T06:13:38.138Z,1010.71
2022-12-28T06:14:38.111Z,1010.77
2022-12-28T06:15:38.097Z,1010.73
2022-12-28T06:16:38.216Z,1010.72
2022-12-28T06:17:38.058Z,1010.82
2022-12-28T06:18:38.047Z,1010.77
2022-12-28T06:19:38.038Z,1010.75
2022-12-28T06:20:38.018Z,1010.73
2022-12-28T06:21:38.026Z,1010.72
2022-12-28T06:22:37.999Z,1010.70
2022-12-28T06:23:37.982Z,1010.74
2022-12-28T06:24:37.959Z,1010.70
2022-12-28T06:25:37.956Z,1010.74
2022-12-28T06:26:37.992Z,1010.71
2022-12-28T06:27:37.944Z,1010.63
2022-12-28T06:28:37.917Z,1010.66
2022-12-28T06:29:37.909Z,1010.62
2022-12-28T06:30:37.886Z,1010.65
2022-12-28T06:31:37.973Z,1010.60
2022-12-28T06:32:37.864Z,1010.73
2022-12-28T06:33:37.852Z,1010.65
2022-12-28T06:34:37.831Z,1010.61
2022-12-28T06:35:37.824Z,1010.65
2022-12-28T06:36:37.840Z,1010.70
2022-12-28T06:37:37.791Z,1010.73
2022-12-28T06:38:37.779Z,1010.73
2022-12-28T06:39:37.759Z,1010.68
2022-12-28T06:41:11.246Z,1010.70
2022-12-28T06:41:38.780Z,1010.70
2022-12-28T06:42:37.729Z,1010.74
2022-12-28T06:43:37.729Z,1010.72
2022-12-28T06:44:44.198Z,1010.80
2022-12-28T06:45:38.792Z,1010.74
2022-12-28T06:46:37.702Z,1010.79
2022-12-28T06:47:37.712Z,1010.74
2022-12-28T06:48:37.644Z,1010.72
2022-12-28T06:49:37.649Z,1010.70
2022-12-28T06:50:40.192Z,1010.75
2022-12-28T06:51:37.630Z,1010.73
2022-12-28T06:52:37.611Z,1010.73
2022-12-28T06:53:37.587Z,1010.68
2022-12-28T06:54:37.564Z,1010.71
2022-12-28T06:55:37.569Z,1010.75
2022-12-28T06:56:37.565Z,1010.80
2022-12-28T06:57:37.533Z,1010.72
2022-12-28T06:58:37.512Z,1010.75
2022-12-28T06:59:37.493Z,1010.78
2022-12-28T07:00:37.557Z,1010.83
2022-12-28T07:01:37.842Z,1010.79
2022-12-28T07:02:37.559Z,1010.86
2022-12-28T07:03:37.458Z,1010.76
2022-12-28T07:04:37.430Z,1010.73
2022-12-28T07:05:37.443Z,1010.76
2022-12-28T07:06:37.451Z,1010.72
2022-12-28T07:07:37.430Z,1010.79
2022-12-28T07:08:37.409Z,1010.72
2022-12-28T07:09:37.364Z,1010.78
2022-12-28T07:10:37.345Z,1010.81
2022-12-28T07:11:37.362Z,1010.72
2022-12-28T07:12:37.364Z,1010.72
2022-12-28T07:13:37.324Z,1010.75
2022-12-28T07:14:37.292Z,1010.72
2022-12-28T07:15:37.288Z,1010.73
2022-12-28T07:17:10.689Z,1010.78
2022-12-28T07:18:09.676Z,1010.81
2022-12-28T07:19:08.013Z,1010.80
2022-12-28T07:20:08.000Z,1010.81
2022-12-28T07:21:07.993Z,1010.83
2022-12-28T07:22:07.979Z,1010.81
2022-12-28T07:23:07.951Z,1010.81
2022-12-28T07:24:07.932Z,1010.81
2022-12-28T07:25:07.935Z,1010.84
2022-12-28T07:26:07.976Z,1010.77
2022-12-28T07:27:07.885Z,1010.79
2022-12-28T07:28:07.890Z,1010.80
2022-12-28T07:29:07.872Z,1010.76
2022-12-28T07:30:07.855Z,1010.85
2022-12-28T07:31:07.858Z,1010.77
2022-12-28T07:32:07.867Z,1010.78
2022-12-28T07:33:07.838Z,1010.73
2022-12-28T07:34:07.794Z,1010.72
2022-12-28T07:35:07.863Z,1010.70
2022-12-28T07:36:07.795Z,1010.68
2022-12-28T07:37:07.796Z,1010.70
2022-12-28T07:38:07.811Z,1010.64
2022-12-28T07:39:07.734Z,1010.64
2022-12-28T07:40:07.834Z,1010.64
2022-12-28T07:41:07.763Z,1010.71
2022-12-28T07:42:07.749Z,1010.63
2022-12-28T07:43:07.707Z,1010.62
2022-12-28T07:44:07.705Z,1010.54
2022-12-28T07:45:07.711Z,1010.61
2022-12-28T07:46:07.691Z,1010.69
2022-12-28T07:47:07.705Z,1010.58
2022-12-28T07:48:07.636Z,1010.70
2022-12-28T07:49:07.619Z,1010.62
2022-12-28T07:50:07.611Z,1010.62
2022-12-28T07:51:07.580Z,1010.54
2022-12-28T07:52:07.619Z,1010.58
2022-12-28T07:53:07.567Z,1010.62
2022-12-28T07:54:07.623Z,1010.64
2022-12-28T07:55:07.530Z,1010.57
2022-12-28T07:56:07.630Z,1010.55
2022-12-28T07:57:07.567Z,1010.52
2022-12-28T07:58:07.488Z,1010.52
2022-12-28T07:59:07.544Z,1010.54
2022-12-28T08:00:07.498Z,1010.53
2022-12-28T08:01:07.563Z,1010.51
2022-12-28T08:02:07.581Z,1010.57
2022-12-28T08:03:07.481Z,1010.54
2022-12-28T08:04:07.425Z,1010.57
2022-12-28T08:05:07.429Z,1010.57
2022-12-28T08:06:07.399Z,1010.54
2022-12-28T08:07:07.395Z,1010.52
2022-12-28T08:08:07.350Z,1010.57
2022-12-28T08:09:07.398Z,1010.52
2022-12-28T08:10:07.349Z,1010.53
2022-12-28T08:11:07.358Z,1010.55
2022-12-28T08:12:07.343Z,1010.57
2022-12-28T08:13:07.290Z,1010.60
2022-12-28T08:14:07.296Z,1010.53
2022-12-28T08:15:07.260Z,1010.56
2022-12-28T08:16:07.367Z,1010.61
2022-12-28T08:17:07.260Z,1010.50
2022-12-28T08:18:07.230Z,1010.48
2022-12-28T08:19:07.238Z,1010.48
2022-12-28T08:20:07.214Z,1010.51
2022-12-28T08:21:07.180Z,1010.44
2022-12-28T08:22:07.197Z,1010.37
2022-12-28T08:23:07.161Z,1010.50
2022-12-28T08:24:07.159Z,1010.46
2022-12-28T08:25:07.133Z,1010.47
2022-12-28T08:26:07.122Z,1010.39
2022-12-28T08:27:07.130Z,1010.39
2022-12-28T08:28:07.084Z,1010.44
2022-12-28T08:29:07.136Z,1010.43
2022-12-28T08:30:07.081Z,1010.39
2022-12-28T08:31:07.082Z,1010.43
2022-12-28T08:32:07.119Z,1010.38
2022-12-28T08:33:07.021Z,1010.41
2022-12-28T08:34:06.991Z,1010.42
2022-12-28T08:35:06.986Z,1010.49
2022-12-28T08:36:06.988Z,1010.48
2022-12-28T08:37:07.015Z,1010.46
2022-12-28T08:38:06.958Z,1010.48
2022-12-28T08:39:06.970Z,1010.50
2022-12-28T08:40:06.937Z,1010.55
2022-12-28T08:41:06.919Z,1010.52
2022-12-28T08:42:06.925Z,1010.46
2022-12-28T08:43:06.953Z,1010.45
2022-12-28T08:44:06.959Z,1010.52
2022-12-28T08:45:06.924Z,1010.47
2022-12-28T08:46:06.942Z,1010.47
2022-12-28T08:47:06.989Z,1010.51
2022-12-28T08:48:06.835Z,1010.51
2022-12-28T08:49:06.793Z,1010.48
2022-12-28T08:50:06.826Z,1010.48
2022-12-28T08:51:06.775Z,1010.41
2022-12-28T08:52:06.786Z,1010.45
2022-12-28T08:53:06.747Z,1010.45
2022-12-28T08:54:06.754Z,1010.46
2022-12-28T08:55:06.736Z,1010.40
2022-12-28T08:56:07.152Z,1010.42
2022-12-28T08:57:06.754Z,1010.42
2022-12-28T08:58:06.688Z,1010.52
2022-12-28T08:59:06.695Z,1010.53
2022-12-28T09:00:06.703Z,1010.42
2022-12-28T09:01:06.785Z,1010.40
2022-12-28T09:02:06.788Z,1010.45
2022-12-28T09:03:06.679Z,1010.46
2022-12-28T09:04:06.647Z,1010.45
2022-12-28T09:05:06.595Z,1010.39
2022-12-28T09:06:06.599Z,1010.46
2022-12-28T09:07:06.647Z,1010.40
2022-12-28T09:08:06.553Z,1010.49
2022-12-28T09:09:07.228Z,1010.44
2022-12-28T09:10:06.551Z,1010.42
2022-12-28T09:11:06.506Z,1010.39
2022-12-28T09:12:06.529Z,1010.45
2022-12-28T09:13:06.541Z,1010.42
2022-12-28T09:14:06.476Z,1010.44
2022-12-28T09:15:06.503Z,1010.40
2022-12-28T09:16:06.477Z,1010.46
2022-12-28T09:17:06.548Z,1010.41
2022-12-28T09:18:06.439Z,1010.40
2022-12-28T09:19:06.406Z,1010.41
2022-12-28T09:20:06.399Z,1010.45
2022-12-28T09:21:06.385Z,1010.46
2022-12-28T09:22:06.454Z,1010.43
2022-12-28T09:23:06.394Z,1010.42
2022-12-28T09:24:06.350Z,1010.39
2022-12-28T09:25:06.340Z,1010.40
2022-12-28T09:26:06.300Z,1010.39
2022-12-28T09:27:06.346Z,1010.48
2022-12-28T09:28:06.289Z,1010.45
2022-12-28T09:29:06.277Z,1010.39
2022-12-28T09:30:06.245Z,1010.40
2022-12-28T09:31:06.294Z,1010.48
2022-12-28T09:32:06.256Z,1010.52
2022-12-28T09:33:06.237Z,1010.46
2022-12-28T09:35:07.187Z,1010.41
2022-12-28T09:36:06.172Z,1010.40
2022-12-28T09:37:06.199Z,1010.48
2022-12-28T09:38:06.149Z,1010.45
2022-12-28T09:39:06.159Z,1010.50
2022-12-28T09:40:06.160Z,1010.39
2022-12-28T09:41:06.151Z,1010.49
2022-12-28T09:42:06.150Z,1010.34
2022-12-28T09:43:06.079Z,1010.38
2022-12-28T09:44:06.071Z,1010.42
2022-12-28T09:45:06.059Z,1010.44
2022-12-28T09:46:06.095Z,1010.42
2022-12-28T09:47:06.056Z,1010.43
2022-12-28T09:48:06.030Z,1010.42
2022-12-28T09:49:06.044Z,1010.40
2022-12-28T09:50:06.000Z,1010.52
2022-12-28T09:51:05.981Z,1010.45
2022-12-28T09:52:06.020Z,1010.44
2022-12-28T09:53:05.994Z,1010.37
2022-12-28T09:54:05.972Z,1010.37
2022-12-28T09:55:05.927Z,1010.34
2022-12-28T09:56:05.934Z,1010.31
2022-12-28T09:57:05.976Z,1010.37
2022-12-28T09:58:05.904Z,1010.32
2022-12-28T09:59:05.960Z,1010.39
2022-12-28T10:00:05.858Z,1010.36
2022-12-28T10:01:05.893Z,1010.38
2022-12-28T10:02:05.963Z,1010.26
2022-12-28T10:03:05.814Z,1010.26
2022-12-28T10:04:05.835Z,1010.30
2022-12-28T10:05:05.773Z,1010.28
2022-12-28T10:06:05.766Z,1010.26
2022-12-28T10:07:05.853Z,1010.25
2022-12-28T10:08:05.752Z,1010.24
2022-12-28T10:09:05.753Z,1010.26
2022-12-28T10:10:05.772Z,1010.23
2022-12-28T10:11:05.705Z,1010.21
2022-12-28T10:12:05.703Z,1010.26
2022-12-28T10:13:09.326Z,1010.24
2022-12-28T10:14:06.676Z,1010.26
2022-12-28T10:15:05.655Z,1010.08
2022-12-28T10:16:05.663Z,1010.15
2022-12-28T10:17:05.632Z,1010.17
2022-12-28T10:18:05.617Z,1010.17
2022-12-28T10:19:05.585Z,1010.16
2022-12-28T10:20:05.613Z,1010.15
2022-12-28T10:21:05.575Z,1010.11
2022-12-28T10:22:05.579Z,1010.13
2022-12-28T10:23:05.565Z,1010.05
2022-12-28T10:24:30.800Z,1010.08
2022-12-28T10:25:06.518Z,1010.01
2022-12-28T10:26:05.536Z,1010.11
2022-12-28T10:27:05.520Z,1010.05
2022-12-28T10:28:05.488Z,1010.03
2022-12-28T10:29:05.447Z,1010.03
2022-12-28T10:30:05.436Z,1010.07
2022-12-28T10:31:05.461Z,1010.04
2022-12-28T10:32:05.426Z,1009.97
2022-12-28T10:33:06.973Z,1010.04
2022-12-28T10:34:05.376Z,1010.08
2022-12-28T10:35:05.383Z,1009.94
2022-12-28T10:36:05.359Z,1009.99
2022-12-28T10:37:05.379Z,1009.93
2022-12-28T10:38:05.371Z,1009.88
2022-12-28T10:39:05.512Z,1009.85
2022-12-28T10:40:05.357Z,1009.93
2022-12-28T10:41:05.339Z,1009.94
2022-12-28T10:42:05.286Z,1009.90
2022-12-28T10:43:10.436Z,1009.90
2022-12-28T10:44:37.941Z,1009.96
2022-12-28T10:45:06.286Z,1009.84
2022-12-28T10:46:05.260Z,1009.87
2022-12-28T10:47:05.244Z,1009.88
2022-12-28T10:48:05.309Z,1009.80
2022-12-28T10:49:05.189Z,1009.77
2022-12-28T10:51:06.149Z,1009.72
2022-12-28T10:52:05.149Z,1009.74
2022-12-28T10:53:05.159Z,1009.72
2022-12-28T10:54:05.158Z,1009.68
2022-12-28T10:55:07.618Z,1009.74
2022-12-28T10:56:05.130Z,1009.75
2022-12-28T10:57:05.052Z,1009.74
2022-12-28T10:58:28.672Z,1009.70
2022-12-28T10:59:06.112Z,1009.72
2022-12-28T11:00:05.046Z,1009.69
2022-12-28T11:01:05.254Z,1009.68
2022-12-28T11:02:05.144Z,1009.71
2022-12-28T11:03:05.083Z,1009.70
2022-12-28T11:04:04.981Z,1009.73
2022-12-28T11:05:04.971Z,1009.72
2022-12-28T11:06:04.982Z,1009.60
2022-12-28T11:07:04.941Z,1009.62
2022-12-28T11:08:04.961Z,1009.62
2022-12-28T11:09:04.924Z,1009.69
2022-12-28T11:10:04.985Z,1009.63
2022-12-28T11:11:04.910Z,1009.68
2022-12-28T11:12:04.871Z,1009.65
2022-12-28T11:13:04.893Z,1009.54
2022-12-28T11:14:04.845Z,1009.58
2022-12-28T11:15:04.831Z,1009.49
2022-12-28T11:16:04.901Z,1009.62
2022-12-28T11:17:04.815Z,1009.49
2022-12-28T11:18:04.815Z,1009.48
2022-12-28T11:19:04.789Z,1009.46
2022-12-28T11:20:04.841Z,1009.47
2022-12-28T11:21:04.909Z,1009.45
2022-12-28T11:22:04.735Z,1009.50
2022-12-28T11:23:04.754Z,1009.48
2022-12-28T11:24:04.693Z,1009.48
2022-12-28T11:25:04.704Z,1009.45
2022-12-28T11:26:04.679Z,1009.46
2022-12-28T11:27:04.672Z,1009.39
2022-12-28T11:28:04.679Z,1009.43
2022-12-28T11:29:04.633Z,1009.43
2022-12-28T11:30:04.780Z,1009.39
2022-12-28T11:31:04.642Z,1009.40
2022-12-28T11:32:04.613Z,1009.46
2022-12-28T11:33:04.658Z,1009.28
2022-12-28T11:34:04.599Z,1009.38
2022-12-28T11:35:04.568Z,1009.37
2022-12-28T11:36:09.699Z,1009.36
2022-12-28T11:37:05.536Z,1009.34
2022-12-28T11:38:04.544Z,1009.33
2022-12-28T11:39:04.508Z,1009.33
2022-12-28T11:40:04.491Z,1009.34
2022-12-28T11:41:04.466Z,1009.22
2022-12-28T11:42:37.722Z,1009.38
2022-12-28T11:43:05.538Z,1009.36
2022-12-28T11:44:04.442Z,1009.30
2022-12-28T11:45:04.427Z,1009.34
2022-12-28T11:46:04.467Z,1009.35
2022-12-28T11:47:04.398Z,1009.34
2022-12-28T11:48:04.419Z,1009.36
2022-12-28T11:49:04.376Z,1009.42
2022-12-28T11:50:04.387Z,1009.33
2022-12-28T11:51:04.367Z,1009.27
2022-12-28T11:52:04.327Z,1009.39
2022-12-28T11:53:09.056Z,1009.33
2022-12-28T11:54:05.312Z,1009.26
2022-12-28T11:55:04.278Z,1009.28
2022-12-28T11:56:04.268Z,1009.27
2022-12-28T11:57:04.276Z,1009.21
2022-12-28T11:58:04.266Z,1009.16
2022-12-28T11:59:04.238Z,1009.21
2022-12-28T12:00:04.262Z,1009.18
2022-12-28T12:01:04.222Z,1009.20
2022-12-28T12:02:04.219Z,1009.23
2022-12-28T12:03:04.258Z,1009.16
2022-12-28T12:04:04.161Z,1009.21
2022-12-28T12:05:04.229Z,1009.11
2022-12-28T12:06:04.140Z,1009.15
2022-12-28T12:07:04.129Z,1009.11
2022-12-28T12:08:04.150Z,1009.09